sensor_id;sensor_type;location;lat;lon;timestamp;pressure;altitude;pressure_sealevel;temperature;humidity
37792;BME280;29527;55.766;37.570;2023-04-23T00:00:06;99574.91;;;9.72;42.14
37792;BME280;29527;55.766;37.570;2023-04-23T00:02:33;99553.06;;;9.55;42.33
37792;BME280;29527;55.766;37.570;2023-04-23T00:05:03;99546.28;;;9.51;42.59
37792;BME280;29527;55.766;37.570;2023-04-23T00:07:32;99572.97;;;9.62;42.64
37792;BME280;29527;55.766;37.570;2023-04-23T00:09:59;99540.81;;;9.41;42.68
37792;BME280;29527;55.766;37.570;2023-04-23T00:12:26;99576.16;;;9.56;42.46
37792;BME280;29527;55.766;37.570;2023-04-23T00:14:52;99572.50;;;9.57;42.67
37792;BME280;29527;55.766;37.570;2023-04-23T00:17:18;99574.59;;;9.54;42.98
37792;BME280;29527;55.766;37.570;2023-04-23T00:19:44;99581.63;;;9.55;42.39
37792;BME280;29527;55.766;37.570;2023-04-23T00:22:10;99587.09;;;9.53;42.49
37792;BME280;29527;55.766;37.570;2023-04-23T00:24:38;99580.53;;;9.46;42.80
37792;BME280;29527;55.766;37.570;2023-04-23T00:27:04;99583.94;;;9.48;42.78
37792;BME280;29527;55.766;37.570;2023-04-23T00:29:29;99591.81;;;9.50;42.65
37792;BME280;29527;55.766;37.570;2023-04-23T00:31:55;99587.59;;;9.47;42.78
37792;BME280;29527;55.766;37.570;2023-04-23T00:34:21;99568.16;;;9.33;42.94
37792;BME280;29527;55.766;37.570;2023-04-23T00:36:46;99587.69;;;9.45;42.38
37792;BME280;29527;55.766;37.570;2023-04-23T00:39:12;99592.47;;;9.42;42.73
37792;BME280;29527;55.766;37.570;2023-04-23T00:41:38;99591.69;;;9.40;42.87
37792;BME280;29527;55.766;37.570;2023-04-23T00:44:06;99566.47;;;9.21;43.08
37792;BME280;29527;55.766;37.570;2023-04-23T00:46:31;99590.97;;;9.38;42.86
37792;BME280;29527;55.766;37.570;2023-04-23T00:48:57;99588.69;;;9.33;43.06
37792;BME280;29527;55.766;37.570;2023-04-23T00:51:24;99595.59;;;9.36;43.07
37792;BME280;29527;55.766;37.570;2023-04-23T00:53:50;99599.25;;;9.34;43.00
37792;BME280;29527;55.766;37.570;2023-04-23T00:56:16;99608.38;;;9.32;43.22
37792;BME280;29527;55.766;37.570;2023-04-23T00:58:43;99606.78;;;9.29;43.20
37792;BME280;29527;55.766;37.570;2023-04-23T01:01:10;99613.81;;;9.30;43.11
37792;BME280;29527;55.766;37.570;2023-04-23T01:03:37;99613.19;;;9.27;43.51
37792;BME280;29527;55.766;37.570;2023-04-23T01:06:03;99596.31;;;9.15;43.42
37792;BME280;29527;55.766;37.570;2023-04-23T01:08:30;99603.72;;;9.23;43.50
37792;BME280;29527;55.766;37.570;2023-04-23T01:10:56;99611.03;;;9.21;43.53
37792;BME280;29527;55.766;37.570;2023-04-23T01:13:22;99605.81;;;9.19;43.62
37792;BME280;29527;55.766;37.570;2023-04-23T01:15:51;99606.91;;;9.16;43.60
37792;BME280;29527;55.766;37.570;2023-04-23T01:18:16;99585.88;;;9.00;43.52
37792;BME280;29527;55.766;37.570;2023-04-23T01:20:44;99605.06;;;9.05;43.81
37792;BME280;29527;55.766;37.570;2023-04-23T01:23:10;99602.88;;;9.11;43.92
37792;BME280;29527;55.766;37.570;2023-04-23T01:25:36;99616.22;;;9.11;43.97
37792;BME280;29527;55.766;37.570;2023-04-23T01:28:02;99578.56;;;8.91;43.68
37792;BME280;29527;55.766;37.570;2023-04-23T01:30:29;99613.44;;;9.12;43.75
37792;BME280;29527;55.766;37.570;2023-04-23T01:32:55;99612.00;;;9.08;43.95
37792;BME280;29527;55.766;37.570;2023-04-23T01:35:22;99620.84;;;9.09;43.78
37792;BME280;29527;55.766;37.570;2023-04-23T01:37:48;99620.25;;;9.05;43.76
37792;BME280;29527;55.766;37.570;2023-04-23T01:40:16;99608.94;;;9.01;44.18
37792;BME280;29527;55.766;37.570;2023-04-23T01:42:42;99610.66;;;9.02;43.99
37792;BME280;29527;55.766;37.570;2023-04-23T01:45:08;99618.50;;;9.04;44.16
37792;BME280;29527;55.766;37.570;2023-04-23T01:47:34;99619.63;;;9.01;43.92
37792;BME280;29527;55.766;37.570;2023-04-23T01:50:00;99616.09;;;9.01;44.12
37792;BME280;29527;55.766;37.570;2023-04-23T01:52:25;99612.59;;;9.00;44.10
37792;BME280;29527;55.766;37.570;2023-04-23T01:54:51;99621.56;;;8.99;44.13
37792;BME280;29527;55.766;37.570;2023-04-23T01:57:17;99597.97;;;8.82;44.09
37792;BME280;29527;55.766;37.570;2023-04-23T01:59:54;99597.75;;;8.85;44.20
37792;BME280;29527;55.766;37.570;2023-04-23T02:02:23;99616.72;;;8.93;44.31
37792;BME280;29527;55.766;37.570;2023-04-23T02:04:49;99620.31;;;8.92;44.59
37792;BME280;29527;55.766;37.570;2023-04-23T02:07:17;99597.50;;;8.76;44.25
37792;BME280;29527;55.766;37.570;2023-04-23T02:09:43;99598.72;;;8.84;44.81
37792;BME280;29527;55.766;37.570;2023-04-23T02:12:08;99631.75;;;9.05;44.06
37792;BME280;29527;55.766;37.570;2023-04-23T02:14:34;99600.69;;;8.93;43.85
37792;BME280;29527;55.766;37.570;2023-04-23T02:17:00;99618.91;;;9.11;44.11
37792;BME280;29527;55.766;37.570;2023-04-23T02:19:27;99632.16;;;9.24;43.90
37792;BME280;29527;55.766;37.570;2023-04-23T02:21:52;99636.78;;;9.33;44.01
37792;BME280;29527;55.766;37.570;2023-04-23T02:24:18;99639.44;;;9.44;43.51
37792;BME280;29527;55.766;37.570;2023-04-23T02:26:43;99632.16;;;9.58;43.21
37792;BME280;29527;55.766;37.570;2023-04-23T02:29:09;99625.97;;;9.69;43.26
37792;BME280;29527;55.766;37.570;2023-04-23T02:31:34;99631.03;;;9.83;43.11
37792;BME280;29527;55.766;37.570;2023-04-23T02:34:00;99634.16;;;10.00;42.39
37792;BME280;29527;55.766;37.570;2023-04-23T02:36:25;99639.00;;;10.17;42.23
37792;BME280;29527;55.766;37.570;2023-04-23T02:38:53;99633.75;;;10.27;41.44
37792;BME280;29527;55.766;37.570;2023-04-23T02:41:18;99640.13;;;10.47;41.33
37792;BME280;29527;55.766;37.570;2023-04-23T02:43:44;99640.56;;;10.64;41.12
37792;BME280;29527;55.766;37.570;2023-04-23T02:46:09;99619.34;;;10.72;40.84
37792;BME280;29527;55.766;37.570;2023-04-23T02:48:39;99637.44;;;11.01;40.15
37792;BME280;29527;55.766;37.570;2023-04-23T02:51:10;99631.28;;;11.11;39.93
37792;BME280;29527;55.766;37.570;2023-04-23T02:53:36;99642.31;;;11.39;39.25
37792;BME280;29527;55.766;37.570;2023-04-23T02:56:02;99624.72;;;11.56;39.27
37792;BME280;29527;55.766;37.570;2023-04-23T02:58:28;99640.75;;;11.77;38.68
37792;BME280;29527;55.766;37.570;2023-04-23T03:00:54;99643.75;;;11.94;38.45
37792;BME280;29527;55.766;37.570;2023-04-23T03:03:20;99617.06;;;11.92;37.83
37792;BME280;29527;55.766;37.570;2023-04-23T03:05:46;99639.19;;;12.25;37.81
37792;BME280;29527;55.766;37.570;2023-04-23T03:08:12;99652.06;;;12.41;37.10
37792;BME280;29527;55.766;37.570;2023-04-23T03:10:37;99657.75;;;12.58;36.84
37792;BME280;29527;55.766;37.570;2023-04-23T03:13:03;99660.44;;;12.68;36.55
37792;BME280;29527;55.766;37.570;2023-04-23T03:15:28;99657.16;;;12.74;36.50
37792;BME280;29527;55.766;37.570;2023-04-23T03:17:54;99663.09;;;12.77;36.39
37792;BME280;29527;55.766;37.570;2023-04-23T03:20:20;99658.56;;;12.88;36.13
37792;BME280;29527;55.766;37.570;2023-04-23T03:22:45;99655.72;;;12.99;36.02
37792;BME280;29527;55.766;37.570;2023-04-23T03:25:11;99668.00;;;13.12;35.97
37792;BME280;29527;55.766;37.570;2023-04-23T03:27:39;99669.00;;;13.20;35.69
37792;BME280;29527;55.766;37.570;2023-04-23T03:30:06;99667.56;;;13.26;35.51
37792;BME280;29527;55.766;37.570;2023-04-23T03:32:33;99663.31;;;13.24;35.42
37792;BME280;29527;55.766;37.570;2023-04-23T03:34:59;99675.44;;;13.38;35.42
37792;BME280;29527;55.766;37.570;2023-04-23T03:37:26;99682.66;;;13.47;35.11
37792;BME280;29527;55.766;37.570;2023-04-23T03:39:52;99682.19;;;13.61;35.13
37792;BME280;29527;55.766;37.570;2023-04-23T03:42:17;99679.88;;;13.76;34.74
37792;BME280;29527;55.766;37.570;2023-04-23T03:44:43;99648.16;;;13.80;34.46
37792;BME280;29527;55.766;37.570;2023-04-23T03:47:08;99690.97;;;14.19;34.54
37792;BME280;29527;55.766;37.570;2023-04-23T03:49:34;99683.16;;;14.44;33.87
37792;BME280;29527;55.766;37.570;2023-04-23T03:51:59;99689.25;;;14.74;33.22
37792;BME280;29527;55.766;37.570;2023-04-23T03:54:25;99686.25;;;15.04;32.59
37792;BME280;29527;55.766;37.570;2023-04-23T03:56:52;99697.00;;;15.40;31.85
37792;BME280;29527;55.766;37.570;2023-04-23T03:59:19;99689.50;;;15.87;31.19
37792;BME280;29527;55.766;37.570;2023-04-23T04:01:45;99691.91;;;16.58;30.53
37792;BME280;29527;55.766;37.570;2023-04-23T04:04:13;99704.19;;;18.01;27.93
37792;BME280;29527;55.766;37.570;2023-04-23T04:06:39;99699.72;;;19.18;26.05
37792;BME280;29527;55.766;37.570;2023-04-23T04:09:05;99676.75;;;19.06;25.73
37792;BME280;29527;55.766;37.570;2023-04-23T04:11:33;99705.13;;;18.95;25.77
37792;BME280;29527;55.766;37.570;2023-04-23T04:13:58;99694.97;;;18.74;26.22
37792;BME280;29527;55.766;37.570;2023-04-23T04:16:24;99696.25;;;18.55;26.55
37792;BME280;29527;55.766;37.570;2023-04-23T04:18:50;99702.16;;;18.35;26.34
37792;BME280;29527;55.766;37.570;2023-04-23T04:21:15;99709.84;;;18.15;27.03
37792;BME280;29527;55.766;37.570;2023-04-23T04:23:43;99716.16;;;17.99;27.18
37792;BME280;29527;55.766;37.570;2023-04-23T04:26:09;99713.84;;;17.87;27.25
37792;BME280;29527;55.766;37.570;2023-04-23T04:28:35;99713.19;;;17.77;27.30
37792;BME280;29527;55.766;37.570;2023-04-23T04:31:02;99711.03;;;17.56;27.59
37792;BME280;29527;55.766;37.570;2023-04-23T04:33:30;99701.44;;;17.36;27.58
37792;BME280;29527;55.766;37.570;2023-04-23T04:35:56;99716.66;;;17.38;27.87
37792;BME280;29527;55.766;37.570;2023-04-23T04:38:21;99717.16;;;17.33;28.28
37792;BME280;29527;55.766;37.570;2023-04-23T04:40:47;99721.03;;;17.30;28.38
37792;BME280;29527;55.766;37.570;2023-04-23T04:43:15;99722.94;;;17.30;28.45
37792;BME280;29527;55.766;37.570;2023-04-23T04:45:41;99721.59;;;17.26;28.25
37792;BME280;29527;55.766;37.570;2023-04-23T04:48:08;99725.13;;;17.26;27.59
37792;BME280;29527;55.766;37.570;2023-04-23T04:50:34;99721.25;;;17.29;27.84
37792;BME280;29527;55.766;37.570;2023-04-23T04:53:00;99724.91;;;17.44;27.67
37792;BME280;29527;55.766;37.570;2023-04-23T04:55:25;99728.47;;;17.53;27.63
37792;BME280;29527;55.766;37.570;2023-04-23T05:00:36;99728.34;;;18.03;27.09
37792;BME280;29527;55.766;37.570;2023-04-23T05:03:02;99705.00;;;18.10;26.51
37792;BME280;29527;55.766;37.570;2023-04-23T05:05:28;99735.13;;;18.47;26.27
37792;BME280;29527;55.766;37.570;2023-04-23T05:07:53;99732.00;;;18.58;26.24
37792;BME280;29527;55.766;37.570;2023-04-23T05:10:20;99735.00;;;18.63;25.77
37792;BME280;29527;55.766;37.570;2023-04-23T05:12:46;99732.84;;;18.59;26.05
37792;BME280;29527;55.766;37.570;2023-04-23T05:15:12;99742.34;;;18.55;26.21
37792;BME280;29527;55.766;37.570;2023-04-23T05:17:39;99748.13;;;18.51;26.09
37792;BME280;29527;55.766;37.570;2023-04-23T05:20:07;99751.19;;;18.57;26.28
37792;BME280;29527;55.766;37.570;2023-04-23T05:22:40;99749.91;;;18.68;25.89
37792;BME280;29527;55.766;37.570;2023-04-23T05:25:07;99732.94;;;18.74;25.71
37792;BME280;29527;55.766;37.570;2023-04-23T05:27:33;99755.50;;;19.21;25.32
37792;BME280;29527;55.766;37.570;2023-04-23T05:30:00;99763.16;;;20.09;24.36
37792;BME280;29527;55.766;37.570;2023-04-23T05:32:29;99740.09;;;23.12;20.68
37792;BME280;29527;55.766;37.570;2023-04-23T05:34:54;99751.59;;;24.21;19.40
37792;BME280;29527;55.766;37.570;2023-04-23T05:37:20;99734.28;;;24.80;18.44
37792;BME280;29527;55.766;37.570;2023-04-23T05:39:46;99745.50;;;25.61;18.11
37792;BME280;29527;55.766;37.570;2023-04-23T05:42:11;99755.03;;;25.77;17.15
37792;BME280;29527;55.766;37.570;2023-04-23T05:44:37;99754.53;;;25.87;17.40
37792;BME280;29527;55.766;37.570;2023-04-23T05:47:03;99750.16;;;25.79;17.50
37792;BME280;29527;55.766;37.570;2023-04-23T05:49:29;99756.31;;;25.75;17.16
37792;BME280;29527;55.766;37.570;2023-04-23T05:51:54;99756.16;;;26.32;16.92
37792;BME280;29527;55.766;37.570;2023-04-23T05:54:20;99753.47;;;26.93;15.90
37792;BME280;29527;55.766;37.570;2023-04-23T05:56:46;99744.22;;;27.30;15.70
37792;BME280;29527;55.766;37.570;2023-04-23T05:59:11;99754.78;;;27.93;15.62
37792;BME280;29527;55.766;37.570;2023-04-23T06:01:37;99760.78;;;28.55;14.90
37792;BME280;29527;55.766;37.570;2023-04-23T06:04:02;99759.88;;;28.66;14.57
37792;BME280;29527;55.766;37.570;2023-04-23T06:06:28;99737.94;;;28.42;14.89
37792;BME280;29527;55.766;37.570;2023-04-23T06:08:53;99751.41;;;28.15;14.78
37792;BME280;29527;55.766;37.570;2023-04-23T06:11:19;99770.31;;;27.99;15.07
37792;BME280;29527;55.766;37.570;2023-04-23T06:13:45;99774.41;;;27.73;15.22
37792;BME280;29527;55.766;37.570;2023-04-23T06:16:11;99759.94;;;27.54;15.19
37792;BME280;29527;55.766;37.570;2023-04-23T06:18:37;99763.53;;;27.54;15.15
37792;BME280;29527;55.766;37.570;2023-04-23T06:21:03;99771.00;;;27.47;15.30
37792;BME280;29527;55.766;37.570;2023-04-23T06:23:31;99777.94;;;27.37;15.24
37792;BME280;29527;55.766;37.570;2023-04-23T06:25:56;99777.63;;;27.70;14.81
37792;BME280;29527;55.766;37.570;2023-04-23T06:28:22;99780.84;;;27.90;14.95
37792;BME280;29527;55.766;37.570;2023-04-23T06:30:48;99780.72;;;28.09;14.84
37792;BME280;29527;55.766;37.570;2023-04-23T06:33:13;99774.63;;;28.07;14.76
37792;BME280;29527;55.766;37.570;2023-04-23T06:35:39;99783.00;;;27.88;15.07
37792;BME280;29527;55.766;37.570;2023-04-23T06:38:05;99775.72;;;27.58;15.21
37792;BME280;29527;55.766;37.570;2023-04-23T06:40:32;99782.06;;;27.04;15.95
37792;BME280;29527;55.766;37.570;2023-04-23T06:42:57;99789.59;;;26.60;16.01
37792;BME280;29527;55.766;37.570;2023-04-23T06:45:23;99793.56;;;26.27;16.42
37792;BME280;29527;55.766;37.570;2023-04-23T06:47:49;99790.09;;;26.13;16.57
37792;BME280;29527;55.766;37.570;2023-04-23T06:50:15;99798.84;;;26.03;16.29
37792;BME280;29527;55.766;37.570;2023-04-23T06:52:42;99801.41;;;25.79;16.68
37792;BME280;29527;55.766;37.570;2023-04-23T06:55:07;99793.78;;;25.62;16.87
37792;BME280;29527;55.766;37.570;2023-04-23T06:57:33;99793.81;;;25.56;16.98
37792;BME280;29527;55.766;37.570;2023-04-23T07:00:00;99791.53;;;25.46;17.27
37792;BME280;29527;55.766;37.570;2023-04-23T07:02:25;99796.78;;;25.54;17.32
37792;BME280;29527;55.766;37.570;2023-04-23T07:04:51;99789.81;;;25.58;17.53
37792;BME280;29527;55.766;37.570;2023-04-23T07:07:17;99794.13;;;25.91;16.94
37792;BME280;29527;55.766;37.570;2023-04-23T07:09:42;99803.63;;;26.51;16.67
37792;BME280;29527;55.766;37.570;2023-04-23T07:12:08;99801.88;;;26.57;15.92
37792;BME280;29527;55.766;37.570;2023-04-23T07:14:33;99795.69;;;26.43;16.21
37792;BME280;29527;55.766;37.570;2023-04-23T07:16:59;99799.53;;;26.42;16.39
37792;BME280;29527;55.766;37.570;2023-04-23T07:19:24;99797.31;;;26.32;16.66
37792;BME280;29527;55.766;37.570;2023-04-23T07:21:51;99797.84;;;26.22;16.95
37792;BME280;29527;55.766;37.570;2023-04-23T07:24:17;99802.25;;;26.23;16.60
37792;BME280;29527;55.766;37.570;2023-04-23T07:26:44;99817.97;;;26.16;16.61
37792;BME280;29527;55.766;37.570;2023-04-23T07:29:09;99801.78;;;26.08;17.04
37792;BME280;29527;55.766;37.570;2023-04-23T07:31:36;99810.97;;;26.39;16.59
37792;BME280;29527;55.766;37.570;2023-04-23T07:34:02;99809.69;;;26.91;16.32
37792;BME280;29527;55.766;37.570;2023-04-23T07:36:27;99811.94;;;27.55;15.53
37792;BME280;29527;55.766;37.570;2023-04-23T07:38:53;99812.75;;;28.51;14.95
37792;BME280;29527;55.766;37.570;2023-04-23T07:41:19;99816.53;;;29.32;14.25
37792;BME280;29527;55.766;37.570;2023-04-23T07:43:44;99803.38;;;29.51;13.92
37792;BME280;29527;55.766;37.570;2023-04-23T07:46:10;99812.13;;;30.16;13.78
37792;BME280;29527;55.766;37.570;2023-04-23T07:48:36;99799.53;;;31.20;13.22
37792;BME280;29527;55.766;37.570;2023-04-23T07:51:01;99804.00;;;33.60;11.41
37792;BME280;29527;55.766;37.570;2023-04-23T07:53:27;99801.81;;;35.55;10.18
37792;BME280;29527;55.766;37.570;2023-04-23T07:55:54;99810.53;;;37.32;9.20
37792;BME280;29527;55.766;37.570;2023-04-23T07:58:21;99805.75;;;37.19;8.43
37792;BME280;29527;55.766;37.570;2023-04-23T08:00:46;99803.94;;;36.90;8.41
37792;BME280;29527;55.766;37.570;2023-04-23T08:03:12;99799.81;;;36.63;8.66
37792;BME280;29527;55.766;37.570;2023-04-23T08:05:38;99802.66;;;35.85;8.99
37792;BME280;29527;55.766;37.570;2023-04-23T08:08:06;99808.28;;;35.05;8.74
37792;BME280;29527;55.766;37.570;2023-04-23T08:10:35;99799.22;;;34.18;9.06
37792;BME280;29527;55.766;37.570;2023-04-23T08:13:01;99804.22;;;33.12;9.66
37792;BME280;29527;55.766;37.570;2023-04-23T08:15:27;99795.19;;;31.62;10.36
37792;BME280;29527;55.766;37.570;2023-04-23T08:17:52;99773.22;;;30.01;11.52
37792;BME280;29527;55.766;37.570;2023-04-23T08:20:18;99801.97;;;28.61;12.33
37792;BME280;29527;55.766;37.570;2023-04-23T08:22:44;99792.53;;;27.38;13.39
37792;BME280;29527;55.766;37.570;2023-04-23T08:25:10;99802.34;;;26.35;14.36
37792;BME280;29527;55.766;37.570;2023-04-23T08:27:37;99789.19;;;25.56;14.70
37792;BME280;29527;55.766;37.570;2023-04-23T08:30:03;99797.72;;;25.09;14.95
37792;BME280;29527;55.766;37.570;2023-04-23T08:32:30;99803.56;;;24.80;15.47
37792;BME280;29527;55.766;37.570;2023-04-23T08:34:56;99791.44;;;24.56;15.60
37792;BME280;29527;55.766;37.570;2023-04-23T08:37:23;99806.50;;;24.20;16.01
37792;BME280;29527;55.766;37.570;2023-04-23T08:39:48;99788.03;;;23.88;15.97
37792;BME280;29527;55.766;37.570;2023-04-23T08:45:00;99794.31;;;23.82;15.62
37792;BME280;29527;55.766;37.570;2023-04-23T08:47:31;99801.72;;;23.82;15.60
37792;BME280;29527;55.766;37.570;2023-04-23T08:49:57;99788.03;;;23.88;15.23
37792;BME280;29527;55.766;37.570;2023-04-23T08:52:25;99790.09;;;24.00;14.96
37792;BME280;29527;55.766;37.570;2023-04-23T08:54:59;99793.25;;;24.10;14.60
37792;BME280;29527;55.766;37.570;2023-04-23T08:57:25;99777.06;;;24.08;14.71
37792;BME280;29527;55.766;37.570;2023-04-23T08:59:51;99785.88;;;24.24;15.71
37792;BME280;29527;55.766;37.570;2023-04-23T09:02:17;99783.97;;;24.25;15.31
37792;BME280;29527;55.766;37.570;2023-04-23T09:04:46;99788.38;;;24.26;15.22
37792;BME280;29527;55.766;37.570;2023-04-23T09:07:12;99777.91;;;24.16;15.86
37792;BME280;29527;55.766;37.570;2023-04-23T09:09:40;99780.66;;;23.89;15.81
37792;BME280;29527;55.766;37.570;2023-04-23T09:12:07;99756.94;;;23.35;16.18
37792;BME280;29527;55.766;37.570;2023-04-23T09:14:34;99776.22;;;23.00;16.88
37792;BME280;29527;55.766;37.570;2023-04-23T09:17:01;99780.31;;;22.62;17.42
37792;BME280;29527;55.766;37.570;2023-04-23T09:19:27;99778.56;;;22.48;17.57
37792;BME280;29527;55.766;37.570;2023-04-23T09:21:53;99776.06;;;22.46;17.66
37792;BME280;29527;55.766;37.570;2023-04-23T09:24:22;99770.72;;;22.38;17.67
37792;BME280;29527;55.766;37.570;2023-04-23T09:26:50;99743.91;;;22.00;17.79
37792;BME280;29527;55.766;37.570;2023-04-23T09:29:20;99773.31;;;22.11;17.61
37792;BME280;29527;55.766;37.570;2023-04-23T09:31:51;99773.94;;;22.06;17.69
37792;BME280;29527;55.766;37.570;2023-04-23T09:34:24;99770.53;;;21.98;17.95
37792;BME280;29527;55.766;37.570;2023-04-23T09:36:51;99764.75;;;21.79;18.24
37792;BME280;29527;55.766;37.570;2023-04-23T09:39:20;99776.91;;;21.83;17.99
37792;BME280;29527;55.766;37.570;2023-04-23T09:41:47;99776.88;;;21.76;18.29
37792;BME280;29527;55.766;37.570;2023-04-23T09:44:17;99764.34;;;21.82;18.17
37792;BME280;29527;55.766;37.570;2023-04-23T09:46:43;99755.75;;;21.85;18.12
37792;BME280;29527;55.766;37.570;2023-04-23T09:49:12;99765.31;;;22.03;18.39
37792;BME280;29527;55.766;37.570;2023-04-23T09:51:39;99759.91;;;22.16;17.65
37792;BME280;29527;55.766;37.570;2023-04-23T09:54:16;99762.53;;;22.38;17.77
37792;BME280;29527;55.766;37.570;2023-04-23T09:56:50;99761.25;;;22.34;17.56
37792;BME280;29527;55.766;37.570;2023-04-23T09:59:25;99722.97;;;22.07;18.04
37792;BME280;29527;55.766;37.570;2023-04-23T10:01:51;99755.50;;;22.15;18.08
37792;BME280;29527;55.766;37.570;2023-04-23T10:04:24;99752.63;;;22.23;17.70
37792;BME280;29527;55.766;37.570;2023-04-23T10:06:57;99747.03;;;22.39;17.78
37792;BME280;29527;55.766;37.570;2023-04-23T10:09:23;99751.41;;;22.33;17.80
37792;BME280;29527;55.766;37.570;2023-04-23T10:14:20;99728.09;;;22.30;17.78
37792;BME280;29527;55.766;37.570;2023-04-23T10:16:46;99738.19;;;22.30;17.54
37792;BME280;29527;55.766;37.570;2023-04-23T10:19:17;99744.63;;;22.22;17.80
37792;BME280;29527;55.766;37.570;2023-04-23T10:21:45;99733.47;;;22.10;17.68
37792;BME280;29527;55.766;37.570;2023-04-23T10:24:16;99739.72;;;22.04;17.68
37792;BME280;29527;55.766;37.570;2023-04-23T10:26:44;99735.84;;;21.85;17.63
37792;BME280;29527;55.766;37.570;2023-04-23T10:29:13;99732.44;;;21.76;18.03
37792;BME280;29527;55.766;37.570;2023-04-23T10:31:41;99742.06;;;21.72;18.23
37792;BME280;29527;55.766;37.570;2023-04-23T10:34:09;99730.78;;;21.82;17.89
37792;BME280;29527;55.766;37.570;2023-04-23T10:36:36;99738.22;;;21.94;18.15
37792;BME280;29527;55.766;37.570;2023-04-23T10:39:03;99737.81;;;21.98;17.57
37792;BME280;29527;55.766;37.570;2023-04-23T10:41:35;99734.59;;;21.87;17.93
37792;BME280;29527;55.766;37.570;2023-04-23T10:44:05;99732.44;;;21.76;18.27
37792;BME280;29527;55.766;37.570;2023-04-23T10:46:32;99730.72;;;21.68;18.51
37792;BME280;29527;55.766;37.570;2023-04-23T10:51:37;99727.66;;;21.56;18.24
37792;BME280;29527;55.766;37.570;2023-04-23T10:54:03;99725.09;;;21.48;18.53
37792;BME280;29527;55.766;37.570;2023-04-23T10:56:29;99726.09;;;21.40;18.55
37792;BME280;29527;55.766;37.570;2023-04-23T10:58:55;99717.84;;;21.33;18.64
37792;BME280;29527;55.766;37.570;2023-04-23T11:01:26;99723.38;;;21.40;19.01
37792;BME280;29527;55.766;37.570;2023-04-23T11:03:52;99707.78;;;21.34;18.83
37792;BME280;29527;55.766;37.570;2023-04-23T11:06:49;99722.50;;;21.40;18.72
37792;BME280;29527;55.766;37.570;2023-04-23T11:11:57;99725.09;;;21.48;18.93
37792;BME280;29527;55.766;37.570;2023-04-23T11:14:49;99715.09;;;21.55;18.56
37792;BME280;29527;55.766;37.570;2023-04-23T11:17:23;99713.44;;;21.32;18.89
37792;BME280;29527;55.766;37.570;2023-04-23T11:22:50;99709.88;;;21.32;19.00
37792;BME280;29527;55.766;37.570;2023-04-23T11:25:27;99703.47;;;21.18;19.23
37792;BME280;29527;55.766;37.570;2023-04-23T11:27:55;99686.03;;;20.84;19.35
37792;BME280;29527;55.766;37.570;2023-04-23T11:30:26;99698.44;;;20.93;19.73
37792;BME280;29527;55.766;37.570;2023-04-23T11:32:54;99703.25;;;20.91;20.11
37792;BME280;29527;55.766;37.570;2023-04-23T11:35:21;99700.53;;;20.91;19.57
37792;BME280;29527;55.766;37.570;2023-04-23T11:37:47;99696.91;;;20.84;19.37
37792;BME280;29527;55.766;37.570;2023-04-23T11:40:18;99706.22;;;20.96;19.42
37792;BME280;29527;55.766;37.570;2023-04-23T11:42:44;99708.91;;;20.89;19.36
37792;BME280;29527;55.766;37.570;2023-04-23T11:45:40;99700.78;;;20.96;19.12
37792;BME280;29527;55.766;37.570;2023-04-23T11:48:05;99687.44;;;20.79;19.60
37792;BME280;29527;55.766;37.570;2023-04-23T11:50:31;99702.06;;;20.78;19.35
37792;BME280;29527;55.766;37.570;2023-04-23T11:53:07;99678.94;;;20.68;19.34
37792;BME280;29527;55.766;37.570;2023-04-23T11:55:33;99692.97;;;20.71;19.35
37792;BME280;29527;55.766;37.570;2023-04-23T11:57:59;99671.88;;;20.51;19.53
37792;BME280;29527;55.766;37.570;2023-04-23T12:00:25;99692.84;;;20.58;19.45
37792;BME280;29527;55.766;37.570;2023-04-23T12:03:02;99688.63;;;20.55;19.53
37792;BME280;29527;55.766;37.570;2023-04-23T12:05:30;99670.53;;;20.26;19.91
37792;BME280;29527;55.766;37.570;2023-04-23T12:08:10;99693.63;;;20.51;19.92
37792;BME280;29527;55.766;37.570;2023-04-23T12:10:46;99696.59;;;20.57;19.72
37792;BME280;29527;55.766;37.570;2023-04-23T12:15:48;99691.34;;;20.77;20.03
37792;BME280;29527;55.766;37.570;2023-04-23T12:18:15;99688.44;;;20.57;20.12
37792;BME280;29527;55.766;37.570;2023-04-23T12:20:41;99691.09;;;20.50;20.52
37792;BME280;29527;55.766;37.570;2023-04-23T12:23:07;99689.59;;;20.47;20.70
37792;BME280;29527;55.766;37.570;2023-04-23T12:25:33;99685.81;;;20.48;20.56
37792;BME280;29527;55.766;37.570;2023-04-23T12:27:59;99689.66;;;20.54;20.36
37792;BME280;29527;55.766;37.570;2023-04-23T12:30:32;99686.63;;;20.64;20.14
37792;BME280;29527;55.766;37.570;2023-04-23T12:32:59;99678.00;;;20.60;20.05
37792;BME280;29527;55.766;37.570;2023-04-23T12:35:44;99684.06;;;20.77;20.40
37792;BME280;29527;55.766;37.570;2023-04-23T12:38:27;99696.91;;;20.84;20.21
37792;BME280;29527;55.766;37.570;2023-04-23T12:40:55;99681.13;;;20.79;19.95
37792;BME280;29527;55.766;37.570;2023-04-23T12:43:21;99681.34;;;20.77;19.88
37792;BME280;29527;55.766;37.570;2023-04-23T12:45:47;99678.63;;;20.77;20.04
37792;BME280;29527;55.766;37.570;2023-04-23T12:48:12;99673.28;;;20.69;20.56
37792;BME280;29527;55.766;37.570;2023-04-23T12:50:39;99659.75;;;20.54;20.18
37792;BME280;29527;55.766;37.570;2023-04-23T12:53:04;99671.19;;;20.49;20.42
37792;BME280;29527;55.766;37.570;2023-04-23T12:55:30;99667.81;;;20.47;20.50
37792;BME280;29527;55.766;37.570;2023-04-23T12:57:57;99671.16;;;20.43;20.34
37792;BME280;29527;55.766;37.570;2023-04-23T13:00:23;99668.72;;;20.33;20.39
37792;BME280;29527;55.766;37.570;2023-04-23T13:02:48;99670.72;;;20.24;20.37
37792;BME280;29527;55.766;37.570;2023-04-23T13:05:14;99655.38;;;20.16;20.43
37792;BME280;29527;55.766;37.570;2023-04-23T13:07:40;99670.38;;;20.12;20.71
37792;BME280;29527;55.766;37.570;2023-04-23T13:10:07;99670.63;;;20.17;21.01